sensor_id;sensor_type;location;lat;lon;timestamp;P1;durP1;ratioP1;P2;durP2;ratioP2
68653;SDS011;55636;51.108;13.622;2022-08-07T00:00:46;1.30;;;1.10;;
68653;SDS011;55636;51.108;13.622;2022-08-07T00:01:51;1.33;;;1.23;;
68653;SDS011;55636;51.108;13.622;2022-08-07T00:03:16;1.20;;;1.10;;
68653;SDS011;55636;51.108;13.622;2022-08-07T00:04:18;1.38;;;1.27;;
68653;SDS011;55636;51.108;13.622;2022-08-07T00:05:25;1.25;;;1.00;;
68653;SDS011;55636;51.108;13.622;2022-08-07T00:06:30;2.00;;;1.10;;
68653;SDS011;55636;51.108;13.622;2022-08-07T00:07:35;1.27;;;1.13;;
68653;SDS011;55636;51.108;13.622;2022-08-07T00:08:42;1.60;;;1.13;;
68653;SDS011;55636;51.108;13.622;2022-08-07T00:09:45;1.45;;;1.35;;
68653;SDS011;55636;51.108;13.622;2022-08-07T00:11:07;1.20;;;1.10;;
68653;SDS011;55636;51.108;13.622;2022-08-07T00:12:10;1.00;;;1.00;;
68653;SDS011;55636;51.108;13.622;2022-08-07T00:13:22;1.70;;;1.20;;
68653;SDS011;55636;51.108;13.622;2022-08-07T00:14:27;1.98;;;1.15;;
68653;SDS011;55636;51.108;13.622;2022-08-07T00:15:32;2.10;;;1.17;;
68653;SDS011;55636;51.108;13.622;2022-08-07T00:16:46;1.15;;;1.05;;
68653;SDS011;55636;51.108;13.622;2022-08-07T00:17:49;1.10;;;1.00;;
68653;SDS011;55636;51.108;13.622;2022-08-07T00:18:51;1.13;;;1.02;;
68653;SDS011;55636;51.108;13.622;2022-08-07T00:19:53;1.25;;;1.10;;
68653;SDS011;55636;51.108;13.622;2022-08-07T00:21:08;1.83;;;0.90;;
68653;SDS011;55636;51.108;13.622;2022-08-07T00:22:31;2.10;;;0.90;;
68653;SDS011;55636;51.108;13.622;2022-08-07T00:23:37;2.45;;;1.00;;
68653;SDS011;55636;51.108;13.622;2022-08-07T00:24:41;1.23;;;1.00;;
68653;SDS011;55636;51.108;13.622;2022-08-07T00:25:46;1.10;;;1.00;;
68653;SDS011;55636;51.108;13.622;2022-08-07T00:27:02;1.02;;;0.93;;
68653;SDS011;55636;51.108;13.622;2022-08-07T00:28:09;1.33;;;0.95;;
68653;SDS011;55636;51.108;13.622;2022-08-07T00:29:12;1.15;;;1.00;;
68653;SDS011;55636;51.108;13.622;2022-08-07T00:30:16;1.30;;;1.10;;
68653;SDS011;55636;51.108;13.622;2022-08-07T00:31:28;0.98;;;0.90;;
68653;SDS011;55636;51.108;13.622;2022-08-07T00:32:42;1.00;;;0.90;;
68653;SDS011;55636;51.108;13.622;2022-08-07T00:33:44;1.05;;;0.98;;
68653;SDS011;55636;51.108;13.622;2022-08-07T00:34:48;1.10;;;1.00;;
68653;SDS011;55636;51.108;13.622;2022-08-07T00:35:54;1.10;;;1.00;;
68653;SDS011;55636;51.108;13.622;2022-08-07T00:36:57;1.13;;;0.90;;
68653;SDS011;55636;51.108;13.622;2022-08-07T00:38:00;1.85;;;0.90;;
68653;SDS011;55636;51.108;13.622;2022-08-07T00:39:02;1.35;;;1.00;;
68653;SDS011;55636;51.108;13.622;2022-08-07T00:40:08;1.63;;;1.10;;
68653;SDS011;55636;51.108;13.622;2022-08-07T00:41:14;1.67;;;1.10;;
68653;SDS011;55636;51.108;13.622;2022-08-07T00:42:17;1.95;;;1.08;;
68653;SDS011;55636;51.108;13.622;2022-08-07T00:43:29;1.83;;;1.08;;
68653;SDS011;55636;51.108;13.622;2022-08-07T00:44:52;0.95;;;0.93;;
68653;SDS011;55636;51.108;13.622;2022-08-07T00:45:55;1.23;;;1.10;;
68653;SDS011;55636;51.108;13.622;2022-08-07T00:46:57;1.70;;;1.13;;
68653;SDS011;55636;51.108;13.622;2022-08-07T00:48:00;1.30;;;1.20;;
68653;SDS011;55636;51.108;13.622;2022-08-07T00:49:12;3.72;;;1.30;;
68653;SDS011;55636;51.108;13.622;2022-08-07T00:50:41;1.30;;;1.20;;
68653;SDS011;55636;51.108;13.622;2022-08-07T00:51:52;1.38;;;1.27;;
68653;SDS011;55636;51.108;13.622;2022-08-07T00:52:58;1.10;;;1.00;;
68653;SDS011;55636;51.108;13.622;2022-08-07T00:54:01;1.30;;;1.20;;
68653;SDS011;55636;51.108;13.622;2022-08-07T00:55:03;1.70;;;1.20;;
68653;SDS011;55636;51.108;13.622;2022-08-07T00:56:11;2.45;;;1.10;;
68653;SDS011;55636;51.108;13.622;2022-08-07T00:57:19;1.45;;;1.10;;
68653;SDS011;55636;51.108;13.622;2022-08-07T00:58:23;1.80;;;1.17;;
68653;SDS011;55636;51.108;13.622;2022-08-07T00:59:25;1.45;;;1.10;;
68653;SDS011;55636;51.108;13.622;2022-08-07T01:00:36;1.80;;;1.30;;
68653;SDS011;55636;51.108;13.622;2022-08-07T01:01:54;1.90;;;1.20;;
68653;SDS011;55636;51.108;13.622;2022-08-07T01:02:58;1.20;;;1.10;;
68653;SDS011;55636;51.108;13.622;2022-08-07T01:04:04;2.05;;;1.10;;
68653;SDS011;55636;51.108;13.622;2022-08-07T01:05:11;1.75;;;1.02;;
68653;SDS011;55636;51.108;13.622;2022-08-07T01:06:20;1.70;;;1.10;;
68653;SDS011;55636;51.108;13.622;2022-08-07T01:07:23;1.88;;;1.17;;
68653;SDS011;55636;51.108;13.622;2022-08-07T01:08:28;1.65;;;1.23;;
68653;SDS011;55636;51.108;13.622;2022-08-07T01:09:32;1.90;;;1.00;;
68653;SDS011;55636;51.108;13.622;2022-08-07T01:10:54;1.05;;;1.05;;
68653;SDS011;55636;51.108;13.622;2022-08-07T01:12:01;1.98;;;1.10;;
68653;SDS011;55636;51.108;13.622;2022-08-07T01:13:23;1.30;;;1.10;;
68653;SDS011;55636;51.108;13.622;2022-08-07T01:14:26;1.33;;;1.10;;
68653;SDS011;55636;51.108;13.622;2022-08-07T01:15:31;1.20;;;1.10;;
68653;SDS011;55636;51.108;13.622;2022-08-07T01:16:55;1.58;;;1.10;;
68653;SDS011;55636;51.108;13.622;2022-08-07T01:17:59;1.48;;;1.20;;
68653;SDS011;55636;51.108;13.622;2022-08-07T01:19:02;0.88;;;0.88;;
68653;SDS011;55636;51.108;13.622;2022-08-07T01:20:21;1.13;;;1.00;;
68653;SDS011;55636;51.108;13.622;2022-08-07T01:21:32;1.02;;;0.90;;
68653;SDS011;55636;51.108;13.622;2022-08-07T01:22:38;0.93;;;0.93;;
68653;SDS011;55636;51.108;13.622;2022-08-07T01:23:54;2.92;;;1.20;;
68653;SDS011;55636;51.108;13.622;2022-08-07T01:24:58;1.60;;;1.10;;
68653;SDS011;55636;51.108;13.622;2022-08-07T01:26:06;1.23;;;1.05;;
68653;SDS011;55636;51.108;13.622;2022-08-07T01:27:14;2.28;;;1.42;;
68653;SDS011;55636;51.108;13.622;2022-08-07T01:28:21;2.13;;;1.00;;
68653;SDS011;55636;51.108;13.622;2022-08-07T01:29:27;1.10;;;1.00;;
68653;SDS011;55636;51.108;13.622;2022-08-07T01:30:35;1.20;;;0.90;;
68653;SDS011;55636;51.108;13.622;2022-08-07T01:31:56;1.80;;;1.10;;
68653;SDS011;55636;51.108;13.622;2022-08-07T01:33:02;1.20;;;1.10;;
68653;SDS011;55636;51.108;13.622;2022-08-07T01:34:05;2.85;;;1.10;;
68653;SDS011;55636;51.108;13.622;2022-08-07T01:35:14;2.10;;;1.20;;
68653;SDS011;55636;51.108;13.622;2022-08-07T01:36:20;2.15;;;1.08;;
68653;SDS011;55636;51.108;13.622;2022-08-07T01:37:36;1.37;;;1.10;;
68653;SDS011;55636;51.108;13.622;2022-08-07T01:38:39;2.13;;;1.42;;
68653;SDS011;55636;51.108;13.622;2022-08-07T01:39:53;1.95;;;1.10;;
68653;SDS011;55636;51.108;13.622;2022-08-07T01:41:05;2.13;;;1.10;;
68653;SDS011;55636;51.108;13.622;2022-08-07T01:42:14;3.35;;;1.38;;
68653;SDS011;55636;51.108;13.622;2022-08-07T01:43:38;1.38;;;1.10;;
68653;SDS011;55636;51.108;13.622;2022-08-07T01:44:42;1.10;;;1.00;;
68653;SDS011;55636;51.108;13.622;2022-08-07T01:45:49;1.37;;;1.07;;
68653;SDS011;55636;51.108;13.622;2022-08-07T01:46:57;3.03;;;1.30;;
68653;SDS011;55636;51.108;13.622;2022-08-07T01:48:04;0.97;;;0.97;;
68653;SDS011;55636;51.108;13.622;2022-08-07T01:49:22;1.30;;;1.20;;
68653;SDS011;55636;51.108;13.622;2022-08-07T01:50:34;1.13;;;1.00;;
68653;SDS011;55636;51.108;13.622;2022-08-07T01:51:44;1.53;;;1.20;;
68653;SDS011;55636;51.108;13.622;2022-08-07T01:53:05;1.70;;;1.20;;
68653;SDS011;55636;51.108;13.622;2022-08-07T01:54:10;2.97;;;1.30;;
68653;SDS011;55636;51.108;13.622;2022-08-07T01:55:41;1.40;;;1.20;;
68653;SDS011;55636;51.108;13.622;2022-08-07T01:56:52;1.40;;;1.30;;
68653;SDS011;55636;51.108;13.622;2022-08-07T01:58:00;1.83;;;1.40;;
68653;SDS011;55636;51.108;13.622;2022-08-07T01:59:51;1.20;;;1.10;;
68653;SDS011;55636;51.108;13.622;2022-08-07T02:01:01;1.40;;;1.30;;
68653;SDS011;55636;51.108;13.622;2022-08-07T02:02:32;2.83;;;1.40;;
68653;SDS011;55636;51.108;13.622;2022-08-07T02:04:07;1.40;;;1.30;;
68653;SDS011;55636;51.108;13.622;2022-08-07T02:05:29;1.90;;;1.60;;
68653;SDS011;55636;51.108;13.622;2022-08-07T02:06:51;2.40;;;1.40;;
68653;SDS011;55636;51.108;13.622;2022-08-07T02:07:55;1.83;;;1.30;;
68653;SDS011;55636;51.108;13.622;2022-08-07T02:09:06;1.77;;;1.37;;
68653;SDS011;55636;51.108;13.622;2022-08-07T02:10:33;1.53;;;1.40;;
68653;SDS011;55636;51.108;13.622;2022-08-07T02:11:43;3.10;;;1.27;;
68653;SDS011;55636;51.108;13.622;2022-08-07T02:13:09;1.50;;;1.40;;
68653;SDS011;55636;51.108;13.622;2022-08-07T02:14:25;2.20;;;1.17;;
68653;SDS011;55636;51.108;13.622;2022-08-07T02:15:40;2.20;;;1.27;;
68653;SDS011;55636;51.108;13.622;2022-08-07T02:16:46;2.40;;;1.40;;
68653;SDS011;55636;51.108;13.622;2022-08-07T02:17:54;1.37;;;1.27;;
68653;SDS011;55636;51.108;13.622;2022-08-07T02:19:01;2.60;;;1.30;;
68653;SDS011;55636;51.108;13.622;2022-08-07T02:20:29;1.67;;;1.30;;
68653;SDS011;55636;51.108;13.622;2022-08-07T02:21:34;1.37;;;1.27;;
68653;SDS011;55636;51.108;13.622;2022-08-07T02:22:58;1.80;;;1.10;;
68653;SDS011;55636;51.108;13.622;2022-08-07T02:24:03;2.20;;;1.30;;
68653;SDS011;55636;51.108;13.622;2022-08-07T02:25:10;1.20;;;1.10;;
68653;SDS011;55636;51.108;13.622;2022-08-07T02:26:28;1.67;;;1.30;;
68653;SDS011;55636;51.108;13.622;2022-08-07T02:27:38;1.97;;;1.30;;
68653;SDS011;55636;51.108;13.622;2022-08-07T02:28:44;1.30;;;1.20;;
68653;SDS011;55636;51.108;13.622;2022-08-07T02:29:51;1.03;;;1.03;;
68653;SDS011;55636;51.108;13.622;2022-08-07T02:31:04;1.80;;;1.33;;
68653;SDS011;55636;51.108;13.622;2022-08-07T02:32:28;1.30;;;1.10;;
68653;SDS011;55636;51.108;13.622;2022-08-07T02:33:31;1.80;;;1.10;;
68653;SDS011;55636;51.108;13.622;2022-08-07T02:34:55;1.50;;;1.40;;
68653;SDS011;55636;51.108;13.622;2022-08-07T02:36:00;1.80;;;1.43;;
68653;SDS011;55636;51.108;13.622;2022-08-07T02:37:24;1.50;;;1.40;;
68653;SDS011;55636;51.108;13.622;2022-08-07T02:38:36;1.40;;;1.30;;
68653;SDS011;55636;51.108;13.622;2022-08-07T02:39:52;1.90;;;1.47;;
68653;SDS011;55636;51.108;13.622;2022-08-07T02:41:19;2.17;;;1.67;;
68653;SDS011;55636;51.108;13.622;2022-08-07T02:42:34;2.00;;;1.80;;
68653;SDS011;55636;51.108;13.622;2022-08-07T02:43:38;1.93;;;1.73;;
68653;SDS011;55636;51.108;13.622;2022-08-07T02:44:51;3.33;;;2.10;;
68653;SDS011;55636;51.108;13.622;2022-08-07T02:45:56;2.17;;;1.73;;
68653;SDS011;55636;51.108;13.622;2022-08-07T02:47:04;2.00;;;1.80;;
68653;SDS011;55636;51.108;13.622;2022-08-07T02:48:22;2.20;;;1.90;;
68653;SDS011;55636;51.108;13.622;2022-08-07T02:49:30;3.13;;;1.90;;
68653;SDS011;55636;51.108;13.622;2022-08-07T02:50:53;2.57;;;1.80;;
68653;SDS011;55636;51.108;13.622;2022-08-07T02:51:57;1.90;;;1.60;;
68653;SDS011;55636;51.108;13.622;2022-08-07T02:53:06;2.50;;;1.83;;
68653;SDS011;55636;51.108;13.622;2022-08-07T02:54:14;2.17;;;1.77;;
68653;SDS011;55636;51.108;13.622;2022-08-07T02:55:22;3.53;;;2.07;;
68653;SDS011;55636;51.108;13.622;2022-08-07T02:56:47;5.37;;;1.77;;
68653;SDS011;55636;51.108;13.622;2022-08-07T02:57:51;2.60;;;2.00;;
68653;SDS011;55636;51.108;13.622;2022-08-07T02:58:55;2.63;;;1.93;;
68653;SDS011;55636;51.108;13.622;2022-08-07T03:00:16;2.47;;;1.73;;
68653;SDS011;55636;51.108;13.622;2022-08-07T03:01:19;1.83;;;1.70;;
68653;SDS011;55636;51.108;13.622;2022-08-07T03:02:43;3.03;;;1.90;;
68653;SDS011;55636;51.108;13.622;2022-08-07T03:03:56;2.73;;;1.70;;
68653;SDS011;55636;51.108;13.622;2022-08-07T03:05:04;1.93;;;1.70;;
68653;SDS011;55636;51.108;13.622;2022-08-07T03:06:08;3.10;;;1.90;;
68653;SDS011;55636;51.108;13.622;2022-08-07T03:07:26;2.50;;;1.90;;
68653;SDS011;55636;51.108;13.622;2022-08-07T03:08:53;2.47;;;1.57;;
68653;SDS011;55636;51.108;13.622;2022-08-07T03:09:57;1.77;;;1.57;;
68653;SDS011;55636;51.108;13.622;2022-08-07T03:11:03;2.13;;;1.53;;
68653;SDS011;55636;51.108;13.622;2022-08-07T03:12:13;1.90;;;1.50;;
68653;SDS011;55636;51.108;13.622;2022-08-07T03:13:38;2.80;;;1.50;;
68653;SDS011;55636;51.108;13.622;2022-08-07T03:14:51;2.13;;;1.60;;
68653;SDS011;55636;51.108;13.622;2022-08-07T03:15:55;1.60;;;1.50;;
68653;SDS011;55636;51.108;13.622;2022-08-07T03:17:02;1.40;;;1.30;;
68653;SDS011;55636;51.108;13.622;2022-08-07T03:18:08;1.80;;;1.40;;
68653;SDS011;55636;51.108;13.622;2022-08-07T03:19:18;2.77;;;1.50;;
68653;SDS011;55636;51.108;13.622;2022-08-07T03:20:22;1.50;;;1.40;;
68653;SDS011;55636;51.108;13.622;2022-08-07T03:21:26;2.30;;;1.50;;
68653;SDS011;55636;51.108;13.622;2022-08-07T03:22:35;1.60;;;1.17;;
68653;SDS011;55636;51.108;13.622;2022-08-07T03:23:39;1.50;;;1.40;;
68653;SDS011;55636;51.108;13.622;2022-08-07T03:25:05;1.23;;;1.13;;
68653;SDS011;55636;51.108;13.622;2022-08-07T03:26:17;1.53;;;1.40;;
68653;SDS011;55636;51.108;13.622;2022-08-07T03:27:24;1.40;;;1.30;;
68653;SDS011;55636;51.108;13.622;2022-08-07T03:28:34;2.37;;;1.40;;
68653;SDS011;55636;51.108;13.622;2022-08-07T03:29:43;1.63;;;1.30;;
68653;SDS011;55636;51.108;13.622;2022-08-07T03:30:55;2.33;;;1.30;;
68653;SDS011;55636;51.108;13.622;2022-08-07T03:32:32;1.30;;;1.20;;
68653;SDS011;55636;51.108;13.622;2022-08-07T03:33:39;1.90;;;1.40;;
68653;SDS011;55636;51.108;13.622;2022-08-07T03:34:44;1.27;;;1.13;;
68653;SDS011;55636;51.108;13.622;2022-08-07T03:36:09;2.20;;;1.40;;
68653;SDS011;55636;51.108;13.622;2022-08-07T03:37:17;1.67;;;1.30;;
68653;SDS011;55636;51.108;13.622;2022-08-07T03:38:28;1.30;;;1.20;;
68653;SDS011;55636;51.108;13.622;2022-08-07T03:39:35;1.87;;;1.50;;
68653;SDS011;55636;51.108;13.622;2022-08-07T03:41:05;1.50;;;1.40;;
68653;SDS011;55636;51.108;13.622;2022-08-07T03:42:11;2.20;;;1.60;;
68653;SDS011;55636;51.108;13.622;2022-08-07T03:43:15;1.63;;;1.50;;
68653;SDS011;55636;51.108;13.622;2022-08-07T03:44:22;1.63;;;1.53;;
68653;SDS011;55636;51.108;13.622;2022-08-07T03:45:36;1.67;;;1.57;;
68653;SDS011;55636;51.108;13.622;2022-08-07T03:46:46;1.47;;;1.37;;
68653;SDS011;55636;51.108;13.622;2022-08-07T03:48:09;2.40;;;1.80;;
68653;SDS011;55636;51.108;13.622;2022-08-07T03:49:13;1.90;;;1.60;;
68653;SDS011;55636;51.108;13.622;2022-08-07T03:50:20;1.60;;;1.50;;
68653;SDS011;55636;51.108;13.622;2022-08-07T03:51:29;1.70;;;1.60;;
68653;SDS011;55636;51.108;13.622;2022-08-07T03:52:48;1.83;;;1.63;;
68653;SDS011;55636;51.108;13.622;2022-08-07T03:53:53;2.67;;;1.87;;
68653;SDS011;55636;51.108;13.622;2022-08-07T03:55:16;1.60;;;1.40;;
68653;SDS011;55636;51.108;13.622;2022-08-07T03:56:20;6.97;;;2.00;;
68653;SDS011;55636;51.108;13.622;2022-08-07T03:57:37;2.13;;;1.93;;
68653;SDS011;55636;51.108;13.622;2022-08-07T03:59:06;2.10;;;1.70;;
68653;SDS011;55636;51.108;13.622;2022-08-07T04:00:15;1.80;;;1.70;;
68653;SDS011;55636;51.108;13.622;2022-08-07T04:01:25;1.87;;;1.60;;
68653;SDS011;55636;51.108;13.622;2022-08-07T04:02:29;3.67;;;1.50;;
68653;SDS011;55636;51.108;13.622;2022-08-07T04:03:35;2.23;;;1.73;;
68653;SDS011;55636;51.108;13.622;2022-08-07T04:04:54;1.77;;;1.43;;
68653;SDS011;55636;51.108;13.622;2022-08-07T04:05:58;3.00;;;1.83;;
68653;SDS011;55636;51.108;13.622;2022-08-07T04:07:02;1.77;;;1.67;;
68653;SDS011;55636;51.108;13.622;2022-08-07T04:08:19;1.77;;;1.63;;
68653;SDS011;55636;51.108;13.622;2022-08-07T04:09:24;1.70;;;1.60;;
68653;SDS011;55636;51.108;13.622;2022-08-07T04:10:46;2.50;;;1.80;;
68653;SDS011;55636;51.108;13.622;2022-08-07T04:12:14;2.20;;;1.70;;
68653;SDS011;55636;51.108;13.622;2022-08-07T04:13:32;2.50;;;1.60;;
68653;SDS011;55636;51.108;13.622;2022-08-07T04:15:01;1.63;;;1.53;;
68653;SDS011;55636;51.108;13.622;2022-08-07T04:16:09;2.13;;;1.80;;
68653;SDS011;55636;51.108;13.622;2022-08-07T04:17:20;2.43;;;1.80;;
68653;SDS011;55636;51.108;13.622;2022-08-07T04:18:26;2.27;;;1.60;;
68653;SDS011;55636;51.108;13.622;2022-08-07T04:19:49;1.87;;;1.60;;
68653;SDS011;55636;51.108;13.622;2022-08-07T04:20:58;5.00;;;1.83;;
68653;SDS011;55636;51.108;13.622;2022-08-07T04:22:03;1.50;;;1.40;;
68653;SDS011;55636;51.108;13.622;2022-08-07T04:23:17;2.77;;;1.70;;
68653;SDS011;55636;51.108;13.622;2022-08-07T04:24:22;3.27;;;1.70;;
68653;SDS011;55636;51.108;13.622;2022-08-07T04:25:37;2.37;;;1.60;;
68653;SDS011;55636;51.108;13.622;2022-08-07T04:26:43;2.20;;;1.70;;
68653;SDS011;55636;51.108;13.622;2022-08-07T04:27:46;3.93;;;1.90;;
68653;SDS011;55636;51.108;13.622;2022-08-07T04:29:04;2.33;;;1.80;;
68653;SDS011;55636;51.108;13.622;2022-08-07T04:30:11;3.27;;;1.97;;
68653;SDS011;55636;51.108;13.622;2022-08-07T04:31:39;2.67;;;1.70;;
68653;SDS011;55636;51.108;13.622;2022-08-07T04:33:06;2.30;;;1.77;;
68653;SDS011;55636;51.108;13.622;2022-08-07T04:34:20;3.23;;;1.60;;
68653;SDS011;55636;51.108;13.622;2022-08-07T04:35:37;1.90;;;1.63;;
68653;SDS011;55636;51.108;13.622;2022-08-07T04:36:46;3.07;;;1.77;;
68653;SDS011;55636;51.108;13.622;2022-08-07T04:37:50;2.90;;;1.53;;
68653;SDS011;55636;51.108;13.622;2022-08-07T04:39:06;1.87;;;1.70;;
68653;SDS011;55636;51.108;13.622;2022-08-07T04:40:11;2.03;;;1.83;;
68653;SDS011;55636;51.108;13.622;2022-08-07T04:41:15;2.93;;;1.70;;
68653;SDS011;55636;51.108;13.622;2022-08-07T04:42:22;1.50;;;1.40;;
68653;SDS011;55636;51.108;13.622;2022-08-07T04:43:31;1.87;;;1.70;;
68653;SDS011;55636;51.108;13.622;2022-08-07T04:44:58;1.77;;;1.53;;
68653;SDS011;55636;51.108;13.622;2022-08-07T04:46:10;1.90;;;1.50;;
68653;SDS011;55636;51.108;13.622;2022-08-07T04:48:19;1.70;;;1.60;;
68653;SDS011;55636;51.108;13.622;2022-08-07T04:49:29;1.80;;;1.67;;
68653;SDS011;55636;51.108;13.622;2022-08-07T04:50:52;2.07;;;1.80;;
68653;SDS011;55636;51.108;13.622;2022-08-07T04:52:18;2.65;;;1.60;;
68653;SDS011;55636;51.108;13.622;2022-08-07T04:53:41;3.57;;;1.50;;
68653;SDS011;55636;51.108;13.622;2022-08-07T04:57:16;1.80;;;1.53;;
68653;SDS011;55636;51.108;13.622;2022-08-07T04:59:01;1.50;;;1.40;;
68653;SDS011;55636;51.108;13.622;2022-08-07T05:00:55;2.90;;;1.70;;
68653;SDS011;55636;51.108;13.622;2022-08-07T05:02:02;2.88;;;1.60;;
68653;SDS011;55636;51.108;13.622;2022-08-07T05:03:16;2.50;;;1.50;;
68653;SDS011;55636;51.108;13.622;2022-08-07T05:04:51;1.70;;;1.60;;
68653;SDS011;55636;51.108;13.622;2022-08-07T05:06:16;1.60;;;1.50;;
68653;SDS011;55636;51.108;13.622;2022-08-07T05:07:43;2.55;;;1.30;;
68653;SDS011;55636;51.108;13.622;2022-08-07T05:11:08;1.85;;;1.50;;
68653;SDS011;55636;51.108;13.622;2022-08-07T05:12:55;1.63;;;1.40;;
68653;SDS011;55636;51.108;13.622;2022-08-07T05:14:06;1.45;;;1.35;;
68653;SDS011;55636;51.108;13.622;2022-08-07T05:15:34;1.45;;;1.35;;
68653;SDS011;55636;51.108;13.622;2022-08-07T05:16:41;2.85;;;1.58;;
68653;SDS011;55636;51.108;13.622;2022-08-07T05:18:01;1.50;;;1.40;;
68653;SDS011;55636;51.108;13.622;2022-08-07T05:19:14;1.52;;;1.40;;
68653;SDS011;55636;51.108;13.622;2022-08-07T05:20:41;1.65;;;1.45;;
68653;SDS011;55636;51.108;13.622;2022-08-07T05:21:51;2.03;;;1.50;;
68653;SDS011;55636;51.108;13.622;2022-08-07T05:23:12;1.90;;;1.40;;
68653;SDS011;55636;51.108;13.622;2022-08-07T05:24:20;1.70;;;1.60;;
68653;SDS011;55636;51.108;13.622;2022-08-07T05:25:31;1.80;;;1.50;;
68653;SDS011;55636;51.108;13.622;2022-08-07T05:26:58;1.60;;;1.50;;
68653;SDS011;55636;51.108;13.622;2022-08-07T05:28:03;2.50;;;1.60;;
68653;SDS011;55636;51.108;13.622;2022-08-07T05:29:24;1.77;;;1.67;;
68653;SDS011;55636;51.108;13.622;2022-08-07T05:30:41;2.15;;;1.60;;
68653;SDS011;55636;51.108;13.622;2022-08-07T05:31:48;1.65;;;1.55;;
68653;SDS011;55636;51.108;13.622;2022-08-07T05:33:00;3.05;;;1.55;;
68653;SDS011;55636;51.108;13.622;2022-08-07T05:34:08;1.83;;;1.70;;
68653;SDS011;55636;51.108;13.622;2022-08-07T05:35:15;2.20;;;1.70;;
68653;SDS011;55636;51.108;13.622;2022-08-07T05:36:35;2.88;;;1.85;;
68653;SDS011;55636;51.108;13.622;2022-08-07T05:37:44;2.30;;;1.73;;
68653;SDS011;55636;51.108;13.622;2022-08-07T05:39:07;4.95;;;1.70;;
68653;SDS011;55636;51.108;13.622;2022-08-07T05:40:35;2.38;;;1.80;;
68653;SDS011;55636;51.108;13.622;2022-08-07T05:41:52;1.70;;;1.60;;
68653;SDS011;55636;51.108;13.622;2022-08-07T05:43:05;1.80;;;1.70;;
68653;SDS011;55636;51.108;13.622;2022-08-07T05:44:12;2.30;;;2.10;;
68653;SDS011;55636;51.108;13.622;2022-08-07T05:45:30;2.53;;;2.08;;
68653;SDS011;55636;51.108;13.622;2022-08-07T05:46:49;3.85;;;2.10;;
68653;SDS011;55636;51.108;13.622;2022-08-07T05:47:58;2.40;;;2.15;;
68653;SDS011;55636;51.108;13.622;2022-08-07T05:49:10;2.60;;;2.40;;
68653;SDS011;55636;51.108;13.622;2022-08-07T05:50:17;2.50;;;2.03;;
68653;SDS011;55636;51.108;13.622;2022-08-07T05:51:20;3.40;;;2.42;;
68653;SDS011;55636;51.108;13.622;2022-08-07T05:52:24;2.50;;;2.30;;
68653;SDS011;55636;51.108;13.622;2022-08-07T05:53:34;3.13;;;2.42;;
68653;SDS011;55636;51.108;13.622;2022-08-07T05:54:56;2.95;;;2.53;;
68653;SDS011;55636;51.108;13.622;2022-08-07T05:56:02;3.33;;;2.40;;
68653;SDS011;55636;51.108;13.622;2022-08-07T05:57:13;3.25;;;2.42;;
68653;SDS011;55636;51.108;13.622;2022-08-07T05:58:18;3.60;;;2.22;;
68653;SDS011;55636;51.108;13.622;2022-08-07T05:59:39;4.32;;;2.50;;
68653;SDS011;55636;51.108;13.622;2022-08-07T06:01:02;3.50;;;2.70;;
68653;SDS011;55636;51.108;13.622;2022-08-07T06:02:09;3.60;;;2.75;;
68653;SDS011;55636;51.108;13.622;2022-08-07T06:03:22;4.45;;;2.70;;
68653;SDS011;55636;51.108;13.622;2022-08-07T06:04:51;4.22;;;3.05;;
68653;SDS011;55636;51.108;13.622;2022-08-07T06:05:56;4.05;;;2.80;;
68653;SDS011;55636;51.108;13.622;2022-08-07T06:07:00;3.28;;;2.90;;
68653;SDS011;55636;51.108;13.622;2022-08-07T06:08:09;4.10;;;2.80;;
68653;SDS011;55636;51.108;13.622;2022-08-07T06:09:31;3.53;;;2.92;;
68653;SDS011;55636;51.108;13.622;2022-08-07T06:10:54;3.00;;;2.60;;
68653;SDS011;55636;51.108;13.622;2022-08-07T06:11:57;3.42;;;2.90;;
68653;SDS011;55636;51.108;13.622;2022-08-07T06:13:00;4.05;;;3.00;;
68653;SDS011;55636;51.108;13.622;2022-08-07T06:14:05;3.30;;;3.00;;
68653;SDS011;55636;51.108;13.622;2022-08-07T06:15:24;7.05;;;3.22;;
68653;SDS011;55636;51.108;13.622;2022-08-07T06:16:46;3.65;;;3.10;;
68653;SDS011;55636;51.108;13.622;2022-08-07T06:17:53;7.70;;;3.38;;
68653;SDS011;55636;51.108;13.622;2022-08-07T06:18:59;3.20;;;2.90;;
68653;SDS011;55636;51.108;13.622;2022-08-07T06:20:02;3.30;;;3.00;;
68653;SDS011;55636;51.108;13.622;2022-08-07T06:21:08;4.70;;;3.15;;
68653;SDS011;55636;51.108;13.622;2022-08-07T06:22:32;3.42;;;3.10;;
68653;SDS011;55636;51.108;13.622;2022-08-07T06:24:10;3.90;;;3.22;;
68653;SDS011;55636;51.108;13.622;2022-08-07T06:25:33;4.88;;;3.60;;
68653;SDS011;55636;51.108;13.622;2022-08-07T06:26:39;4.15;;;3.75;;
68653;SDS011;55636;51.108;13.622;2022-08-07T06:27:44;4.95;;;3.58;;
68653;SDS011;55636;51.108;13.622;2022-08-07T06:29:04;5.18;;;3.47;;
68653;SDS011;55636;51.108;13.622;2022-08-07T06:30:07;4.82;;;3.53;;
68653;SDS011;55636;51.108;13.622;2022-08-07T06:31:30;3.53;;;3.20;;
68653;SDS011;55636;51.108;13.622;2022-08-07T06:32:52;5.03;;;2.95;;
68653;SDS011;55636;51.108;13.622;2022-08-07T06:33:56;5.47;;;3.38;;
68653;SDS011;55636;51.108;13.622;2022-08-07T06:34:59;5.38;;;3.70;;
68653;SDS011;55636;51.108;13.622;2022-08-07T06:36:01;4.38;;;3.33;;
68653;SDS011;55636;51.108;13.622;2022-08-07T06:37:30;4.55;;;3.20;;
68653;SDS011;55636;51.108;13.622;2022-08-07T06:38:45;3.67;;;3.17;;
68653;SDS011;55636;51.108;13.622;2022-08-07T06:40:08;4.28;;;3.10;;
68653;SDS011;55636;51.108;13.622;2022-08-07T06:43:25;4.95;;;3.13;;
68653;SDS011;55636;51.108;13.622;2022-08-07T06:44:47;3.40;;;2.80;;
68653;SDS011;55636;51.108;13.622;2022-08-07T06:45:54;4.00;;;3.30;;
68653;SDS011;55636;51.108;13.622;2022-08-07T06:47:01;4.07;;;2.72;;
68653;SDS011;55636;51.108;13.622;2022-08-07T06:48:15;3.80;;;3.00;;
68653;SDS011;55636;51.108;13.622;2022-08-07T06:49:27;2.80;;;2.55;;
68653;SDS011;55636;51.108;13.622;2022-08-07T06:50:29;2.92;;;2.42;;
68653;SDS011;55636;51.108;13.622;2022-08-07T06:51:38;2.78;;;2.58;;
68653;SDS011;55636;51.108;13.622;2022-08-07T06:52:52;3.03;;;2.72;;
68653;SDS011;55636;51.108;13.622;2022-08-07T06:53:58;3.13;;;2.75;;
68653;SDS011;55636;51.108;13.622;2022-08-07T06:55:42;3.08;;;2.75;;
68653;SDS011;55636;51.108;13.622;2022-08-07T06:57:05;3.25;;;2.95;;
68653;SDS011;55636;51.108;13.622;2022-08-07T06:58:11;3.65;;;2.85;;
68653;SDS011;55636;51.108;13.622;2022-08-07T06:59:26;3.75;;;2.95;;
68653;SDS011;55636;51.108;13.622;2022-08-07T07:00:53;3.53;;;3.00;;
68653;SDS011;55636;51.108;13.622;2022-08-07T07:01:58;4.28;;;2.92;;
68653;SDS011;55636;51.108;13.622;2022-08-07T07:03:06;5.15;;;3.00;;
68653;SDS011;55636;51.108;13.622;2022-08-07T07:04:17;3.53;;;2.70;;
68653;SDS011;55636;51.108;13.622;2022-08-07T07:05:34;3.20;;;2.90;;
68653;SDS011;55636;51.108;13.622;2022-08-07T07:06:57;3.42;;;2.75;;
68653;SDS011;55636;51.108;13.622;2022-08-07T07:08:03;3.42;;;2.95;;
68653;SDS011;55636;51.108;13.622;2022-08-07T07:09:24;3.08;;;2.83;;
68653;SDS011;55636;51.108;13.622;2022-08-07T07:10:32;5.88;;;3.03;;
68653;SDS011;55636;51.108;13.622;2022-08-07T07:11:36;3.58;;;2.70;;
68653;SDS011;55636;51.108;13.622;2022-08-07T07:13:11;3.75;;;3.10;;
68653;SDS011;55636;51.108;13.622;2022-08-07T07:14:48;3.95;;;3.20;;
68653;SDS011;55636;51.108;13.622;2022-08-07T07:15:59;3.30;;;3.00;;
68653;SDS011;55636;51.108;13.622;2022-08-07T07:17:12;3.83;;;3.00;;
68653;SDS011;55636;51.108;13.622;2022-08-07T07:18:33;4.38;;;3.10;;